PWSweather.com
Personal Weather Stations
Station Observations
MEREWETHER
MerewetherAU

MerewetherAU

Lat: -32.945, Lon: 151.756

Elevation: 180

Station Type: Davis Vantage Pro

Latest ConditionsUpdated 8:03:07 AM GMT+10:10 Sunday, Feb 24, 2019
Currently Today's Max Today's Min Today's Average
Temperature 71.2°F21.8°C 72.0°F22.2°C 70.0°F21.1°C 70.8°F21.6°C
Dew Point 60.1°F15.6°C 63.6°F17.6°C 57.9°F14.4°C 60.1°F15.6°C
Winds 7.0 mph SE11.3 kmh SE 20.0 mph -32.2 kmh - - 11.4 mph 18.3 kmh
Wind Gusts 19.0 mph30.6 kmh 27.0 mph43.5 kmh - -
Humidity 68% 75% 64% 69%
Pressure 30.29 in1025.7 mb 30.29 in1025.7 mb 30.18 in1022.0 mb -
Hour Temp Dew Point Humidity Winds Wind Gusts Pressure Precip Precip Rate Daily Precip Total
08:03 AM 71.2°F21.8°C 60.1°F15.6°C 68% 7.0 mph SE11.3 kmh SE 19.0 mph30.6 kmh 30.29 in1025.7 mb 0.00 in0.0 mm 0.00 in0.0 mm 0.00 in0.0 mm
07:53 AM 71.4°F21.9°C 59.9°F15.5°C 67% 9.0 mph ESE14.5 kmh ESE 19.0 mph30.6 kmh 30.29 in1025.7 mb 0.00 in0.0 mm 0.00 in0.0 mm 0.00 in0.0 mm
07:43 AM 71.5°F21.9°C 59.1°F15.1°C 65% 8.0 mph S12.9 kmh S 19.0 mph30.6 kmh 30.29 in1025.7 mb 0.00 in0.0 mm 0.00 in0.0 mm 0.00 in0.0 mm
07:33 AM 71.1°F21.7°C 59.6°F15.3°C 67% 9.0 mph SE14.5 kmh SE 21.0 mph33.8 kmh 30.28 in1025.4 mb 0.00 in0.0 mm 0.00 in0.0 mm 0.00 in0.0 mm
07:23 AM 71.2°F21.8°C 59.7°F15.4°C 67% 13.0 mph E20.9 kmh E 21.0 mph33.8 kmh 30.28 in1025.4 mb 0.00 in0.0 mm 0.00 in0.0 mm 0.00 in0.0 mm
07:13 AM 71.0°F21.7°C 59.5°F15.3°C 67% 11.0 mph SE17.7 kmh SE 21.0 mph33.8 kmh 30.27 in1025.1 mb 0.00 in0.0 mm 0.00 in0.0 mm 0.00 in0.0 mm
07:03 AM 70.6°F21.4°C 59.1°F15.1°C 67% 11.0 mph ESE17.7 kmh ESE 17.0 mph27.4 kmh 30.27 in1025.1 mb 0.00 in0.0 mm 0.00 in0.0 mm 0.00 in0.0 mm
06:53 AM 70.3°F21.3°C 59.6°F15.3°C 69% 9.0 mph ESE14.5 kmh ESE 19.0 mph30.6 kmh 30.27 in1025.1 mb 0.00 in0.0 mm 0.00 in0.0 mm 0.00 in0.0 mm
06:43 AM 70.4°F21.3°C 59.3°F15.2°C 68% 5.0 mph E8.0 kmh E 19.0 mph30.6 kmh 30.26 in1024.7 mb 0.00 in0.0 mm 0.00 in0.0 mm 0.00 in0.0 mm
06:33 AM 70.4°F21.3°C 60.5°F15.8°C 71% 17.0 mph ESE27.4 kmh ESE 19.0 mph30.6 kmh 30.26 in1024.7 mb 0.00 in0.0 mm 0.00 in0.0 mm 0.00 in0.0 mm
06:23 AM 70.2°F21.2°C 59.5°F15.3°C 69% 9.0 mph SE14.5 kmh SE 21.0 mph33.8 kmh 30.26 in1024.7 mb 0.00 in0.0 mm 0.00 in0.0 mm 0.00 in0.0 mm
06:13 AM 70.2°F21.2°C 59.5°F15.3°C 69% 5.0 mph SE8.0 kmh SE 21.0 mph33.8 kmh 30.25 in1024.4 mb 0.00 in0.0 mm 0.00 in0.0 mm 0.00 in0.0 mm
06:03 AM 70.2°F21.2°C 60.3°F15.7°C 71% 11.0 mph SE17.7 kmh SE 19.0 mph30.6 kmh 30.25 in1024.4 mb 0.00 in0.0 mm 0.00 in0.0 mm 0.00 in0.0 mm
05:53 AM 70.2°F21.2°C 59.5°F15.3°C 69% 6.0 mph ESE9.7 kmh ESE 18.0 mph29.0 kmh 30.25 in1024.4 mb 0.00 in0.0 mm 0.00 in0.0 mm 0.00 in0.0 mm
05:43 AM 70.2°F21.2°C 60.3°F15.7°C 71% 10.0 mph SE16.1 kmh SE 19.0 mph30.6 kmh 30.24 in1024.0 mb 0.00 in0.0 mm 0.00 in0.0 mm 0.00 in0.0 mm
05:33 AM 70.2°F21.2°C 60.3°F15.7°C 71% 9.0 mph ESE14.5 kmh ESE 19.0 mph30.6 kmh 30.24 in1024.0 mb 0.00 in0.0 mm 0.00 in0.0 mm 0.00 in0.0 mm
05:23 AM 70.1°F21.2°C 60.6°F15.9°C 72% 8.0 mph SE12.9 kmh SE 21.0 mph33.8 kmh 30.23 in1023.7 mb 0.00 in0.0 mm 0.00 in0.0 mm 0.00 in0.0 mm
05:13 AM 70.0°F21.1°C 60.2°F15.7°C 71% 8.0 mph SE12.9 kmh SE 21.0 mph33.8 kmh 30.23 in1023.7 mb 0.00 in0.0 mm 0.00 in0.0 mm 0.00 in0.0 mm
05:03 AM 70.2°F21.2°C 60.7°F15.9°C 72% 9.0 mph ESE14.5 kmh ESE 21.0 mph33.8 kmh 30.22 in1023.4 mb 0.00 in0.0 mm 0.00 in0.0 mm 0.00 in0.0 mm
04:53 AM 70.3°F21.3°C 60.4°F15.8°C 71% 13.0 mph ENE20.9 kmh ENE 20.0 mph32.2 kmh 30.22 in1023.4 mb 0.00 in0.0 mm 0.00 in0.0 mm 0.00 in0.0 mm
04:43 AM 70.6°F21.4°C 60.7°F15.9°C 71% 10.0 mph SE16.1 kmh SE 20.0 mph32.2 kmh 30.22 in1023.4 mb 0.00 in0.0 mm 0.00 in0.0 mm 0.00 in0.0 mm
04:33 AM 70.3°F21.3°C 60.8°F16.0°C 72% 11.0 mph SE17.7 kmh SE 20.0 mph32.2 kmh 30.21 in1023.0 mb 0.00 in0.0 mm 0.00 in0.0 mm 0.00 in0.0 mm
04:23 AM 70.2°F21.2°C 61.5°F16.4°C 74% 17.0 mph SSE27.4 kmh SSE 19.0 mph30.6 kmh 30.22 in1023.4 mb 0.00 in0.0 mm 0.00 in0.0 mm 0.00 in0.0 mm
04:13 AM 70.3°F21.3°C 61.2°F16.2°C 73% 11.0 mph ESE17.7 kmh ESE 20.0 mph32.2 kmh 30.21 in1023.0 mb 0.00 in0.0 mm 0.00 in0.0 mm 0.00 in0.0 mm
04:03 AM 70.6°F21.4°C 60.3°F15.7°C 70% 13.0 mph S20.9 kmh S 22.0 mph35.4 kmh 30.21 in1023.0 mb 0.00 in0.0 mm 0.00 in0.0 mm 0.00 in0.0 mm
03:53 AM 70.9°F21.6°C 59.4°F15.2°C 67% 14.0 mph SSE22.5 kmh SSE 23.0 mph37.0 kmh 30.21 in1023.0 mb 0.00 in0.0 mm 0.00 in0.0 mm 0.00 in0.0 mm
03:43 AM 71.2°F21.8°C 58.8°F14.9°C 65% 8.0 mph SE12.9 kmh SE 23.0 mph37.0 kmh 30.20 in1022.7 mb 0.00 in0.0 mm 0.00 in0.0 mm 0.00 in0.0 mm
03:33 AM 71.0°F21.7°C 59.1°F15.1°C 66% 8.0 mph SSE12.9 kmh SSE 18.0 mph29.0 kmh 30.20 in1022.7 mb 0.00 in0.0 mm 0.00 in0.0 mm 0.00 in0.0 mm
03:23 AM 70.8°F21.6°C 59.7°F15.4°C 68% 6.0 mph S9.7 kmh S 19.0 mph30.6 kmh 30.20 in1022.7 mb 0.00 in0.0 mm 0.00 in0.0 mm 0.00 in0.0 mm
03:13 AM 70.9°F21.6°C 58.5°F14.7°C 65% 8.0 mph SSE12.9 kmh SSE 22.0 mph35.4 kmh 30.20 in1022.7 mb 0.00 in0.0 mm 0.00 in0.0 mm 0.00 in0.0 mm
03:03 AM 70.9°F21.6°C 58.1°F14.5°C 64% 15.0 mph SE24.1 kmh SE 23.0 mph37.0 kmh 30.20 in1022.7 mb 0.00 in0.0 mm 0.00 in0.0 mm 0.00 in0.0 mm
02:53 AM 70.7°F21.5°C 57.9°F14.4°C 64% 11.0 mph SE17.7 kmh SE 23.0 mph37.0 kmh 30.19 in1022.4 mb 0.00 in0.0 mm 0.00 in0.0 mm 0.00 in0.0 mm
02:43 AM 70.8°F21.6°C 58.0°F14.4°C 64% 6.0 mph SE9.7 kmh SE 22.0 mph35.4 kmh 30.19 in1022.4 mb 0.00 in0.0 mm 0.00 in0.0 mm 0.00 in0.0 mm
02:33 AM 70.7°F21.5°C 57.9°F14.4°C 64% 15.0 mph SSE24.1 kmh SSE 24.0 mph38.6 kmh 30.19 in1022.4 mb 0.00 in0.0 mm 0.00 in0.0 mm 0.00 in0.0 mm
02:23 AM 70.8°F21.6°C 59.3°F15.2°C 67% 16.0 mph SSE25.7 kmh SSE 24.0 mph38.6 kmh 30.19 in1022.4 mb 0.00 in0.0 mm 0.00 in0.0 mm 0.00 in0.0 mm
02:13 AM 70.9°F21.6°C 59.8°F15.4°C 68% 11.0 mph E17.7 kmh E 25.0 mph40.2 kmh 30.19 in1022.4 mb 0.00 in0.0 mm 0.00 in0.0 mm 0.00 in0.0 mm
02:03 AM 71.0°F21.7°C 59.5°F15.3°C 67% 9.0 mph SE14.5 kmh SE 25.0 mph40.2 kmh 30.19 in1022.4 mb 0.00 in0.0 mm 0.00 in0.0 mm 0.00 in0.0 mm
01:53 AM 71.0°F21.7°C 59.1°F15.1°C 66% 19.0 mph SE30.6 kmh SE 27.0 mph43.5 kmh 30.19 in1022.4 mb 0.00 in0.0 mm 0.00 in0.0 mm 0.00 in0.0 mm
01:43 AM 71.1°F21.7°C 58.7°F14.8°C 65% 20.0 mph SE32.2 kmh SE 27.0 mph43.5 kmh 30.19 in1022.4 mb 0.00 in0.0 mm 0.00 in0.0 mm 0.00 in0.0 mm
01:33 AM 71.2°F21.8°C 60.1°F15.6°C 68% 8.0 mph SE12.9 kmh SE 24.0 mph38.6 kmh 30.18 in1022.0 mb 0.00 in0.0 mm 0.00 in0.0 mm 0.00 in0.0 mm
01:23 AM 71.2°F21.8°C 60.5°F15.8°C 69% 11.0 mph ESE17.7 kmh ESE 25.0 mph40.2 kmh 30.18 in1022.0 mb 0.00 in0.0 mm 0.00 in0.0 mm 0.00 in0.0 mm
01:13 AM 71.2°F21.8°C 59.7°F15.4°C 67% 16.0 mph SE25.7 kmh SE 25.0 mph40.2 kmh 30.19 in1022.4 mb 0.00 in0.0 mm 0.00 in0.0 mm 0.00 in0.0 mm
01:03 AM 71.2°F21.8°C 60.9°F16.1°C 70% 13.0 mph SSE20.9 kmh SSE 25.0 mph40.2 kmh 30.19 in1022.4 mb 0.00 in0.0 mm 0.00 in0.0 mm 0.00 in0.0 mm
12:53 AM 71.7°F22.1°C 63.0°F17.2°C 74% 13.0 mph SE20.9 kmh SE 26.0 mph41.8 kmh 30.19 in1022.4 mb 0.00 in0.0 mm 0.00 in0.0 mm 0.00 in0.0 mm
12:43 AM 71.8°F22.1°C 62.3°F16.8°C 72% 18.0 mph SE29.0 kmh SE 26.0 mph41.8 kmh 30.19 in1022.4 mb 0.00 in0.0 mm 0.00 in0.0 mm 0.00 in0.0 mm
12:33 AM 71.8°F22.1°C 62.3°F16.8°C 72% 14.0 mph SE22.5 kmh SE 23.0 mph37.0 kmh 30.19 in1022.4 mb 0.00 in0.0 mm 0.00 in0.0 mm 0.00 in0.0 mm
12:23 AM 71.9°F22.2°C 62.8°F17.1°C 73% 19.0 mph SE30.6 kmh SE 23.0 mph37.0 kmh 30.19 in1022.4 mb 0.00 in0.0 mm 0.00 in0.0 mm 0.00 in0.0 mm
12:13 AM 72.0°F22.2°C 63.6°F17.6°C 75% 20.0 mph SSE32.2 kmh SSE 27.0 mph43.5 kmh 30.19 in1022.4 mb 0.00 in0.0 mm 0.00 in0.0 mm 0.00 in0.0 mm
12:03 AM 71.9°F22.2°C 63.5°F17.5°C 75% 11.0 mph SE17.7 kmh SE 27.0 mph43.5 kmh 30.19 in1022.4 mb 0.00 in0.0 mm 0.00 in0.0 mm 0.00 in0.0 mm